sensor_id;sensor_type;location;lat;lon;timestamp;P1;durP1;ratioP1;P2;durP2;ratioP2
5117;SDS011;2578;51.622;7.046;2022-09-12T00:00:37;9.63;;;4.60;;
5117;SDS011;2578;51.622;7.046;2022-09-12T00:03:02;9.53;;;4.70;;
5117;SDS011;2578;51.622;7.046;2022-09-12T00:05:29;9.97;;;5.40;;
5117;SDS011;2578;51.622;7.046;2022-09-12T00:07:56;9.97;;;5.50;;
5117;SDS011;2578;51.622;7.046;2022-09-12T00:10:22;16.20;;;7.53;;
5117;SDS011;2578;51.622;7.046;2022-09-12T00:12:48;10.13;;;5.40;;
5117;SDS011;2578;51.622;7.046;2022-09-12T00:15:13;9.87;;;5.10;;
5117;SDS011;2578;51.622;7.046;2022-09-12T00:17:39;10.03;;;5.00;;
5117;SDS011;2578;51.622;7.046;2022-09-12T00:20:05;10.03;;;5.10;;
5117;SDS011;2578;51.622;7.046;2022-09-12T00:22:33;10.07;;;5.30;;
5117;SDS011;2578;51.622;7.046;2022-09-12T00:24:59;9.83;;;5.10;;
5117;SDS011;2578;51.622;7.046;2022-09-12T00:27:24;10.50;;;6.10;;
5117;SDS011;2578;51.622;7.046;2022-09-12T00:29:51;9.93;;;5.10;;
5117;SDS011;2578;51.622;7.046;2022-09-12T00:32:17;10.00;;;5.20;;
5117;SDS011;2578;51.622;7.046;2022-09-12T00:34:42;10.10;;;5.50;;
5117;SDS011;2578;51.622;7.046;2022-09-12T00:37:08;9.97;;;5.30;;
5117;SDS011;2578;51.622;7.046;2022-09-12T00:39:33;10.17;;;5.60;;
5117;SDS011;2578;51.622;7.046;2022-09-12T00:41:59;10.03;;;5.40;;
5117;SDS011;2578;51.622;7.046;2022-09-12T00:46:54;10.17;;;5.60;;
5117;SDS011;2578;51.622;7.046;2022-09-12T00:49:25;10.33;;;5.70;;
5117;SDS011;2578;51.622;7.046;2022-09-12T00:52:13;10.60;;;6.17;;
5117;SDS011;2578;51.622;7.046;2022-09-12T00:54:56;10.07;;;5.40;;
5117;SDS011;2578;51.622;7.046;2022-09-12T00:57:27;10.17;;;5.30;;
5117;SDS011;2578;51.622;7.046;2022-09-12T01:00:03;11.00;;;5.87;;
5117;SDS011;2578;51.622;7.046;2022-09-12T01:02:38;10.07;;;5.10;;
5117;SDS011;2578;51.622;7.046;2022-09-12T01:05:04;9.87;;;4.90;;
5117;SDS011;2578;51.622;7.046;2022-09-12T01:07:33;10.13;;;5.13;;
5117;SDS011;2578;51.622;7.046;2022-09-12T01:10:00;10.20;;;5.33;;
5117;SDS011;2578;51.622;7.046;2022-09-12T01:12:29;10.07;;;5.30;;
5117;SDS011;2578;51.622;7.046;2022-09-12T01:14:55;10.33;;;5.60;;
5117;SDS011;2578;51.622;7.046;2022-09-12T01:17:21;10.47;;;6.10;;
5117;SDS011;2578;51.622;7.046;2022-09-12T01:20:05;10.47;;;6.40;;
5117;SDS011;2578;51.622;7.046;2022-09-12T01:28:39;10.87;;;7.10;;
5117;SDS011;2578;51.622;7.046;2022-09-12T01:31:47;10.93;;;7.00;;
5117;SDS011;2578;51.622;7.046;2022-09-12T01:34:25;10.97;;;7.10;;
5117;SDS011;2578;51.622;7.046;2022-09-12T01:39:54;10.87;;;6.80;;
5117;SDS011;2578;51.622;7.046;2022-09-12T01:45:40;11.23;;;7.50;;
5117;SDS011;2578;51.622;7.046;2022-09-12T01:48:14;11.43;;;7.70;;
5117;SDS011;2578;51.622;7.046;2022-09-12T01:50:49;11.67;;;8.30;;
5117;SDS011;2578;51.622;7.046;2022-09-12T01:53:33;11.63;;;8.20;;
5117;SDS011;2578;51.622;7.046;2022-09-12T01:56:09;11.60;;;8.20;;
5117;SDS011;2578;51.622;7.046;2022-09-12T01:58:50;11.47;;;7.90;;
5117;SDS011;2578;51.622;7.046;2022-09-12T02:01:33;11.33;;;7.60;;
5117;SDS011;2578;51.622;7.046;2022-09-12T02:04:16;11.27;;;7.50;;
5117;SDS011;2578;51.622;7.046;2022-09-12T02:06:52;11.80;;;7.93;;
5117;SDS011;2578;51.622;7.046;2022-09-12T02:09:23;11.30;;;7.20;;
5117;SDS011;2578;51.622;7.046;2022-09-12T02:12:22;11.33;;;6.93;;
5117;SDS011;2578;51.622;7.046;2022-09-12T02:14:55;11.33;;;7.50;;
5117;SDS011;2578;51.622;7.046;2022-09-12T02:17:26;11.90;;;7.93;;
5117;SDS011;2578;51.622;7.046;2022-09-12T02:19:56;11.90;;;7.83;;
5117;SDS011;2578;51.622;7.046;2022-09-12T02:22:27;11.27;;;7.30;;
5117;SDS011;2578;51.622;7.046;2022-09-12T02:24:55;11.27;;;7.07;;
5117;SDS011;2578;51.622;7.046;2022-09-12T02:27:26;11.27;;;7.37;;
5117;SDS011;2578;51.622;7.046;2022-09-12T02:29:57;11.23;;;6.90;;
5117;SDS011;2578;51.622;7.046;2022-09-12T02:32:30;11.27;;;7.00;;
5117;SDS011;2578;51.622;7.046;2022-09-12T02:37:56;11.23;;;6.97;;
5117;SDS011;2578;51.622;7.046;2022-09-12T02:40:35;12.30;;;8.30;;
5117;SDS011;2578;51.622;7.046;2022-09-12T02:43:02;11.50;;;7.97;;
5117;SDS011;2578;51.622;7.046;2022-09-12T02:45:29;13.30;;;7.87;;
5117;SDS011;2578;51.622;7.046;2022-09-12T02:48:12;11.00;;;7.13;;
5117;SDS011;2578;51.622;7.046;2022-09-12T02:50:42;11.67;;;7.37;;
5117;SDS011;2578;51.622;7.046;2022-09-12T02:53:08;11.03;;;7.10;;
5117;SDS011;2578;51.622;7.046;2022-09-12T02:55:35;10.70;;;6.80;;
5117;SDS011;2578;51.622;7.046;2022-09-12T02:58:04;14.90;;;8.53;;
5117;SDS011;2578;51.622;7.046;2022-09-12T03:00:34;11.30;;;8.80;;
5117;SDS011;2578;51.622;7.046;2022-09-12T03:05:56;12.77;;;9.40;;
5117;SDS011;2578;51.622;7.046;2022-09-12T03:16:43;11.27;;;8.80;;
5117;SDS011;2578;51.622;7.046;2022-09-12T03:20:02;13.50;;;8.90;;
5117;SDS011;2578;51.622;7.046;2022-09-12T03:22:22;12.00;;;9.03;;
5117;SDS011;2578;51.622;7.046;2022-09-12T03:27:51;11.33;;;8.40;;
5117;SDS011;2578;51.622;7.046;2022-09-12T03:30:22;11.53;;;8.80;;
5117;SDS011;2578;51.622;7.046;2022-09-12T03:32:50;11.50;;;8.70;;
5117;SDS011;2578;51.622;7.046;2022-09-12T03:35:19;11.60;;;8.80;;
5117;SDS011;2578;51.622;7.046;2022-09-12T03:37:47;11.70;;;9.30;;
5117;SDS011;2578;51.622;7.046;2022-09-12T03:40:14;13.17;;;10.13;;
5117;SDS011;2578;51.622;7.046;2022-09-12T03:42:40;11.67;;;9.00;;
5117;SDS011;2578;51.622;7.046;2022-09-12T03:45:06;11.70;;;9.27;;
5117;SDS011;2578;51.622;7.046;2022-09-12T03:47:33;11.53;;;8.90;;
5117;SDS011;2578;51.622;7.046;2022-09-12T03:49:59;11.37;;;8.60;;
5117;SDS011;2578;51.622;7.046;2022-09-12T03:52:25;11.50;;;8.90;;
5117;SDS011;2578;51.622;7.046;2022-09-12T03:54:51;11.67;;;9.00;;
5117;SDS011;2578;51.622;7.046;2022-09-12T03:57:16;11.33;;;8.30;;
5117;SDS011;2578;51.622;7.046;2022-09-12T03:59:42;11.33;;;8.20;;
5117;SDS011;2578;51.622;7.046;2022-09-12T04:02:08;11.47;;;8.47;;
5117;SDS011;2578;51.622;7.046;2022-09-12T04:04:37;11.40;;;8.50;;
5117;SDS011;2578;51.622;7.046;2022-09-12T04:07:04;11.43;;;8.53;;
5117;SDS011;2578;51.622;7.046;2022-09-12T04:09:29;11.47;;;8.47;;
5117;SDS011;2578;51.622;7.046;2022-09-12T04:11:55;11.50;;;8.60;;
5117;SDS011;2578;51.622;7.046;2022-09-12T04:14:21;11.73;;;9.47;;
5117;SDS011;2578;51.622;7.046;2022-09-12T04:16:47;11.87;;;9.30;;
5117;SDS011;2578;51.622;7.046;2022-09-12T04:19:12;11.57;;;9.50;;
5117;SDS011;2578;51.622;7.046;2022-09-12T04:21:38;11.37;;;8.60;;
5117;SDS011;2578;51.622;7.046;2022-09-12T04:24:04;12.10;;;9.50;;
5117;SDS011;2578;51.622;7.046;2022-09-12T04:26:29;11.80;;;9.33;;
5117;SDS011;2578;51.622;7.046;2022-09-12T04:28:55;11.43;;;8.93;;
5117;SDS011;2578;51.622;7.046;2022-09-12T04:31:22;11.47;;;9.00;;
5117;SDS011;2578;51.622;7.046;2022-09-12T04:33:52;12.07;;;9.97;;
5117;SDS011;2578;51.622;7.046;2022-09-12T04:36:19;12.70;;;11.23;;
5117;SDS011;2578;51.622;7.046;2022-09-12T04:38:45;12.23;;;10.23;;
5117;SDS011;2578;51.622;7.046;2022-09-12T04:43:38;13.87;;;10.37;;
5117;SDS011;2578;51.622;7.046;2022-09-12T04:46:07;12.53;;;9.87;;
5117;SDS011;2578;51.622;7.046;2022-09-12T04:48:35;11.93;;;9.60;;
5117;SDS011;2578;51.622;7.046;2022-09-12T04:51:09;13.77;;;10.37;;
5117;SDS011;2578;51.622;7.046;2022-09-12T04:53:41;12.70;;;10.50;;
5117;SDS011;2578;51.622;7.046;2022-09-12T04:56:08;12.20;;;9.90;;
5117;SDS011;2578;51.622;7.046;2022-09-12T04:58:35;12.50;;;9.80;;
5117;SDS011;2578;51.622;7.046;2022-09-12T05:01:08;12.30;;;10.73;;
5117;SDS011;2578;51.622;7.046;2022-09-12T05:03:34;20.27;;;11.33;;
5117;SDS011;2578;51.622;7.046;2022-09-12T05:06:03;12.93;;;10.27;;
5117;SDS011;2578;51.622;7.046;2022-09-12T05:08:33;12.63;;;10.63;;
5117;SDS011;2578;51.622;7.046;2022-09-12T05:11:03;12.17;;;9.40;;
5117;SDS011;2578;51.622;7.046;2022-09-12T05:13:31;12.10;;;8.93;;
5117;SDS011;2578;51.622;7.046;2022-09-12T05:15:58;12.00;;;9.30;;
5117;SDS011;2578;51.622;7.046;2022-09-12T05:18:26;14.37;;;10.07;;
5117;SDS011;2578;51.622;7.046;2022-09-12T05:20:52;12.37;;;10.07;;
5117;SDS011;2578;51.622;7.046;2022-09-12T05:23:19;21.43;;;11.37;;
5117;SDS011;2578;51.622;7.046;2022-09-12T05:25:51;12.37;;;10.20;;
5117;SDS011;2578;51.622;7.046;2022-09-12T05:28:19;12.90;;;10.73;;
5117;SDS011;2578;51.622;7.046;2022-09-12T05:30:45;12.27;;;9.83;;
5117;SDS011;2578;51.622;7.046;2022-09-12T05:33:11;13.97;;;12.47;;
5117;SDS011;2578;51.622;7.046;2022-09-12T05:35:37;12.13;;;9.40;;
5117;SDS011;2578;51.622;7.046;2022-09-12T05:38:03;12.10;;;9.50;;
5117;SDS011;2578;51.622;7.046;2022-09-12T05:40:30;13.93;;;10.40;;
5117;SDS011;2578;51.622;7.046;2022-09-12T05:42:56;15.47;;;13.87;;
5117;SDS011;2578;51.622;7.046;2022-09-12T05:45:21;12.27;;;9.80;;
5117;SDS011;2578;51.622;7.046;2022-09-12T05:47:47;12.17;;;9.53;;
5117;SDS011;2578;51.622;7.046;2022-09-12T05:50:13;11.97;;;9.30;;
5117;SDS011;2578;51.622;7.046;2022-09-12T05:52:39;11.77;;;9.40;;
5117;SDS011;2578;51.622;7.046;2022-09-12T05:55:05;11.57;;;8.93;;
5117;SDS011;2578;51.622;7.046;2022-09-12T05:57:30;11.20;;;7.90;;
5117;SDS011;2578;51.622;7.046;2022-09-12T05:59:56;11.20;;;7.60;;
5117;SDS011;2578;51.622;7.046;2022-09-12T06:02:22;10.83;;;7.00;;
5117;SDS011;2578;51.622;7.046;2022-09-12T06:04:47;11.97;;;7.50;;
5117;SDS011;2578;51.622;7.046;2022-09-12T06:07:13;10.37;;;5.70;;
5117;SDS011;2578;51.622;7.046;2022-09-12T06:09:38;11.63;;;7.40;;
5117;SDS011;2578;51.622;7.046;2022-09-12T06:12:04;10.60;;;5.97;;
5117;SDS011;2578;51.622;7.046;2022-09-12T06:14:31;10.20;;;5.20;;
5117;SDS011;2578;51.622;7.046;2022-09-12T06:16:57;10.40;;;5.27;;
5117;SDS011;2578;51.622;7.046;2022-09-12T06:19:23;10.10;;;3.90;;
5117;SDS011;2578;51.622;7.046;2022-09-12T06:21:51;10.93;;;3.50;;
5117;SDS011;2578;51.622;7.046;2022-09-12T06:24:17;11.60;;;2.97;;
5117;SDS011;2578;51.622;7.046;2022-09-12T06:26:44;9.37;;;3.00;;
5117;SDS011;2578;51.622;7.046;2022-09-12T06:29:11;9.80;;;3.20;;
5117;SDS011;2578;51.622;7.046;2022-09-12T06:31:38;10.47;;;3.43;;
5117;SDS011;2578;51.622;7.046;2022-09-12T06:34:09;10.07;;;4.10;;
5117;SDS011;2578;51.622;7.046;2022-09-12T06:36:37;13.47;;;5.00;;
5117;SDS011;2578;51.622;7.046;2022-09-12T06:39:20;9.73;;;3.20;;
5117;SDS011;2578;51.622;7.046;2022-09-12T06:41:47;17.40;;;3.63;;
5117;SDS011;2578;51.622;7.046;2022-09-12T06:44:15;9.90;;;3.33;;
5117;SDS011;2578;51.622;7.046;2022-09-12T06:46:42;9.80;;;3.30;;
5117;SDS011;2578;51.622;7.046;2022-09-12T06:49:08;9.60;;;2.60;;
5117;SDS011;2578;51.622;7.046;2022-09-12T06:51:35;36.50;;;3.73;;
5117;SDS011;2578;51.622;7.046;2022-09-12T06:54:01;9.97;;;2.63;;
5117;SDS011;2578;51.622;7.046;2022-09-12T06:56:27;9.83;;;2.70;;
5117;SDS011;2578;51.622;7.046;2022-09-12T06:58:56;9.70;;;2.70;;
5117;SDS011;2578;51.622;7.046;2022-09-12T07:01:24;9.47;;;2.30;;
5117;SDS011;2578;51.622;7.046;2022-09-12T07:03:52;9.73;;;2.70;;
5117;SDS011;2578;51.622;7.046;2022-09-12T07:06:20;9.67;;;2.50;;
5117;SDS011;2578;51.622;7.046;2022-09-12T07:08:48;9.90;;;2.97;;
5117;SDS011;2578;51.622;7.046;2022-09-12T07:11:17;9.73;;;3.20;;
5117;SDS011;2578;51.622;7.046;2022-09-12T07:13:45;9.97;;;3.60;;
5117;SDS011;2578;51.622;7.046;2022-09-12T07:16:13;10.03;;;4.07;;
5117;SDS011;2578;51.622;7.046;2022-09-12T07:18:39;10.47;;;5.23;;
5117;SDS011;2578;51.622;7.046;2022-09-12T07:21:06;10.43;;;5.17;;
5117;SDS011;2578;51.622;7.046;2022-09-12T07:23:34;11.50;;;5.97;;
5117;SDS011;2578;51.622;7.046;2022-09-12T07:26:00;11.30;;;5.80;;
5117;SDS011;2578;51.622;7.046;2022-09-12T07:28:27;10.83;;;6.10;;
5117;SDS011;2578;51.622;7.046;2022-09-12T07:30:54;17.20;;;7.43;;
5117;SDS011;2578;51.622;7.046;2022-09-12T07:33:20;10.40;;;5.90;;
5117;SDS011;2578;51.622;7.046;2022-09-12T07:35:52;15.60;;;7.23;;
5117;SDS011;2578;51.622;7.046;2022-09-12T07:38:18;10.73;;;5.83;;
5117;SDS011;2578;51.622;7.046;2022-09-12T07:40:44;11.63;;;6.40;;
5117;SDS011;2578;51.622;7.046;2022-09-12T07:43:10;10.50;;;5.63;;
5117;SDS011;2578;51.622;7.046;2022-09-12T07:45:36;9.97;;;4.97;;
5117;SDS011;2578;51.622;7.046;2022-09-12T07:48:02;10.30;;;5.43;;
5117;SDS011;2578;51.622;7.046;2022-09-12T07:50:27;11.70;;;5.77;;
5117;SDS011;2578;51.622;7.046;2022-09-12T07:52:53;9.63;;;4.60;;
5117;SDS011;2578;51.622;7.046;2022-09-12T07:55:19;12.97;;;5.20;;
5117;SDS011;2578;51.622;7.046;2022-09-12T07:57:48;13.80;;;5.80;;
5117;SDS011;2578;51.622;7.046;2022-09-12T08:00:14;9.77;;;4.80;;
5117;SDS011;2578;51.622;7.046;2022-09-12T08:02:41;10.00;;;6.07;;
5117;SDS011;2578;51.622;7.046;2022-09-12T08:05:06;9.47;;;5.47;;
5117;SDS011;2578;51.622;7.046;2022-09-12T08:07:32;9.40;;;5.63;;
5117;SDS011;2578;51.622;7.046;2022-09-12T08:09:58;9.37;;;5.87;;
5117;SDS011;2578;51.622;7.046;2022-09-12T08:12:24;9.37;;;5.53;;
5117;SDS011;2578;51.622;7.046;2022-09-12T08:14:53;9.83;;;6.80;;
5117;SDS011;2578;51.622;7.046;2022-09-12T08:17:19;9.53;;;6.30;;
5117;SDS011;2578;51.622;7.046;2022-09-12T08:19:45;9.93;;;7.20;;
5117;SDS011;2578;51.622;7.046;2022-09-12T08:22:12;10.40;;;8.53;;
5117;SDS011;2578;51.622;7.046;2022-09-12T08:24:37;10.10;;;7.83;;
5117;SDS011;2578;51.622;7.046;2022-09-12T08:27:04;9.83;;;7.50;;
5117;SDS011;2578;51.622;7.046;2022-09-12T08:29:30;11.00;;;8.83;;
5117;SDS011;2578;51.622;7.046;2022-09-12T08:31:56;11.47;;;8.80;;
5117;SDS011;2578;51.622;7.046;2022-09-12T08:34:21;11.87;;;8.63;;
5117;SDS011;2578;51.622;7.046;2022-09-12T08:36:48;10.30;;;8.07;;
5117;SDS011;2578;51.622;7.046;2022-09-12T08:39:15;10.83;;;8.87;;
5117;SDS011;2578;51.622;7.046;2022-09-12T08:41:44;13.33;;;11.40;;
5117;SDS011;2578;51.622;7.046;2022-09-12T08:47:09;15.07;;;13.63;;
5117;SDS011;2578;51.622;7.046;2022-09-12T08:52:39;15.70;;;14.20;;
5117;SDS011;2578;51.622;7.046;2022-09-12T08:55:28;18.13;;;16.40;;
5117;SDS011;2578;51.622;7.046;2022-09-12T08:58:00;19.10;;;17.40;;
5117;SDS011;2578;51.622;7.046;2022-09-12T09:03:47;24.13;;;21.90;;
5117;SDS011;2578;51.622;7.046;2022-09-12T09:09:23;34.37;;;22.60;;
5117;SDS011;2578;51.622;7.046;2022-09-12T09:17:31;29.00;;;26.23;;
5117;SDS011;2578;51.622;7.046;2022-09-12T09:28:57;32.20;;;29.20;;
5117;SDS011;2578;51.622;7.046;2022-09-12T09:31:29;30.23;;;27.33;;
5117;SDS011;2578;51.622;7.046;2022-09-12T09:34:05;34.77;;;31.67;;
5117;SDS011;2578;51.622;7.046;2022-09-12T09:36:47;30.53;;;27.80;;
5117;SDS011;2578;51.622;7.046;2022-09-12T09:40:07;31.60;;;28.80;;
5117;SDS011;2578;51.622;7.046;2022-09-12T09:45:21;34.30;;;31.30;;
5117;SDS011;2578;51.622;7.046;2022-09-12T09:50:35;36.93;;;33.73;;
5117;SDS011;2578;51.622;7.046;2022-09-12T09:53:02;35.70;;;32.50;;
5117;SDS011;2578;51.622;7.046;2022-09-12T09:55:39;35.63;;;32.33;;
5117;SDS011;2578;51.622;7.046;2022-09-12T09:58:06;35.60;;;32.20;;
5117;SDS011;2578;51.622;7.046;2022-09-12T10:00:33;34.47;;;31.17;;
5117;SDS011;2578;51.622;7.046;2022-09-12T10:05:35;34.30;;;30.90;;
5117;SDS011;2578;51.622;7.046;2022-09-12T10:08:20;36.10;;;32.40;;
5117;SDS011;2578;51.622;7.046;2022-09-12T10:10:54;33.83;;;30.52;;
5117;SDS011;2578;51.622;7.046;2022-09-12T10:13:35;35.70;;;32.33;;
5117;SDS011;2578;51.622;7.046;2022-09-12T10:16:19;34.37;;;31.07;;
5117;SDS011;2578;51.622;7.046;2022-09-12T10:18:47;33.87;;;30.67;;
5117;SDS011;2578;51.622;7.046;2022-09-12T10:24:35;37.60;;;34.10;;
5117;SDS011;2578;51.622;7.046;2022-09-12T10:27:05;37.50;;;34.00;;
5117;SDS011;2578;51.622;7.046;2022-09-12T10:29:40;37.03;;;33.53;;
5117;SDS011;2578;51.622;7.046;2022-09-12T10:32:10;37.37;;;33.87;;
5117;SDS011;2578;51.622;7.046;2022-09-12T10:37:07;38.10;;;34.60;;
5117;SDS011;2578;51.622;7.046;2022-09-12T10:39:40;38.10;;;34.50;;
5117;SDS011;2578;51.622;7.046;2022-09-12T10:42:13;38.17;;;34.67;;
5117;SDS011;2578;51.622;7.046;2022-09-12T10:44:39;37.27;;;33.57;;
5117;SDS011;2578;51.622;7.046;2022-09-12T10:47:19;37.93;;;34.43;;
5117;SDS011;2578;51.622;7.046;2022-09-12T10:49:46;35.00;;;31.60;;
5117;SDS011;2578;51.622;7.046;2022-09-12T10:52:16;37.73;;;34.23;;
5117;SDS011;2578;51.622;7.046;2022-09-12T10:54:45;41.47;;;37.80;;
5117;SDS011;2578;51.622;7.046;2022-09-12T10:57:31;40.93;;;37.23;;
5117;SDS011;2578;51.622;7.046;2022-09-12T11:00:10;41.43;;;37.73;;
5117;SDS011;2578;51.622;7.046;2022-09-12T11:05:55;41.83;;;38.10;;
5117;SDS011;2578;51.622;7.046;2022-09-12T11:08:36;40.90;;;37.20;;
5117;SDS011;2578;51.622;7.046;2022-09-12T11:11:35;41.77;;;37.77;;
5117;SDS011;2578;51.622;7.046;2022-09-12T11:16:52;37.10;;;33.70;;
5117;SDS011;2578;51.622;7.046;2022-09-12T11:19:39;38.80;;;35.30;;
5117;SDS011;2578;51.622;7.046;2022-09-12T11:30:11;39.53;;;35.93;;
5117;SDS011;2578;51.622;7.046;2022-09-12T11:35:33;38.60;;;35.20;;
5117;SDS011;2578;51.622;7.046;2022-09-12T11:38:23;37.80;;;34.50;;
5117;SDS011;2578;51.622;7.046;2022-09-12T11:41:01;38.93;;;35.53;;
5117;SDS011;2578;51.622;7.046;2022-09-12T11:46:32;37.30;;;34.00;;
5117;SDS011;2578;51.622;7.046;2022-09-12T11:54:14;39.63;;;36.10;;
5117;SDS011;2578;51.622;7.046;2022-09-12T11:56:56;38.70;;;35.20;;
5117;SDS011;2578;51.622;7.046;2022-09-12T12:01:57;38.93;;;35.63;;
5117;SDS011;2578;51.622;7.046;2022-09-12T12:04:26;39.90;;;36.40;;
5117;SDS011;2578;51.622;7.046;2022-09-12T12:07:09;39.23;;;35.93;;
5117;SDS011;2578;51.622;7.046;2022-09-12T12:09:45;38.20;;;34.80;;
5117;SDS011;2578;51.622;7.046;2022-09-12T12:12:15;38.70;;;35.30;;
5117;SDS011;2578;51.622;7.046;2022-09-12T12:14:48;37.90;;;34.60;;
5117;SDS011;2578;51.622;7.046;2022-09-12T12:17:19;38.30;;;34.90;;
5117;SDS011;2578;51.622;7.046;2022-09-12T12:19:47;38.80;;;35.40;;
5117;SDS011;2578;51.622;7.046;2022-09-12T12:22:22;37.53;;;34.13;;
5117;SDS011;2578;51.622;7.046;2022-09-12T12:24:58;39.27;;;35.77;;
5117;SDS011;2578;51.622;7.046;2022-09-12T12:38:03;40.40;;;37.00;;
5117;SDS011;2578;51.622;7.046;2022-09-12T12:40:48;39.50;;;36.20;;
5117;SDS011;2578;51.622;7.046;2022-09-12T12:43:27;38.83;;;35.43;;
5117;SDS011;2578;51.622;7.046;2022-09-12T12:46:00;36.97;;;33.67;;
5117;SDS011;2578;51.622;7.046;2022-09-12T12:48:29;39.00;;;35.50;;
5117;SDS011;2578;51.622;7.046;2022-09-12T12:54:02;38.40;;;35.10;;
5117;SDS011;2578;51.622;7.046;2022-09-12T12:56:39;37.10;;;33.90;;
5117;SDS011;2578;51.622;7.046;2022-09-12T12:59:43;36.37;;;33.07;;
5117;SDS011;2578;51.622;7.046;2022-09-12T13:01:58;40.13;;;36.63;;
5117;SDS011;2578;51.622;7.046;2022-09-12T13:04:25;38.10;;;34.70;;
5117;SDS011;2578;51.622;7.046;2022-09-12T13:07:04;38.57;;;35.07;;
5117;SDS011;2578;51.622;7.046;2022-09-12T13:11:59;38.17;;;34.77;;
5117;SDS011;2578;51.622;7.046;2022-09-12T13:14:51;40.47;;;36.97;;
5117;SDS011;2578;51.622;7.046;2022-09-12T13:20:03;42.50;;;38.90;;
5117;SDS011;2578;51.622;7.046;2022-09-12T13:22:43;41.53;;;38.00;;
5117;SDS011;2578;51.622;7.046;2022-09-12T13:25:44;40.20;;;36.70;;
5117;SDS011;2578;51.622;7.046;2022-09-12T13:30:38;39.50;;;36.10;;
5117;SDS011;2578;51.622;7.046;2022-09-12T13:38:56;39.20;;;35.83;;
5117;SDS011;2578;51.622;7.046;2022-09-12T13:41:34;41.17;;;37.57;;
5117;SDS011;2578;51.622;7.046;2022-09-12T13:44:08;41.57;;;38.07;;
5117;SDS011;2578;51.622;7.046;2022-09-12T13:46:37;38.97;;;35.57;;
5117;SDS011;2578;51.622;7.046;2022-09-12T13:49:09;36.37;;;33.00;;
5117;SDS011;2578;51.622;7.046;2022-09-12T13:52:14;38.10;;;34.70;;
5117;SDS011;2578;51.622;7.046;2022-09-12T13:54:44;38.87;;;35.50;;
5117;SDS011;2578;51.622;7.046;2022-09-12T13:57:33;37.47;;;34.17;;
5117;SDS011;2578;51.622;7.046;2022-09-12T14:00:07;35.57;;;32.37;;
5117;SDS011;2578;51.622;7.046;2022-09-12T14:02:44;39.37;;;35.97;;
5117;SDS011;2578;51.622;7.046;2022-09-12T14:05:13;40.47;;;36.97;;
5117;SDS011;2578;51.622;7.046;2022-09-12T14:12:57;39.90;;;36.40;;
5117;SDS011;2578;51.622;7.046;2022-09-12T14:15:25;38.30;;;35.00;;
5117;SDS011;2578;51.622;7.046;2022-09-12T14:17:55;39.13;;;35.83;;
5117;SDS011;2578;51.622;7.046;2022-09-12T14:20:25;38.30;;;35.00;;
5117;SDS011;2578;51.622;7.046;2022-09-12T14:22:57;38.90;;;35.60;;
5117;SDS011;2578;51.622;7.046;2022-09-12T14:25:45;39.70;;;36.40;;
5117;SDS011;2578;51.622;7.046;2022-09-12T14:28:12;37.60;;;34.30;;
5117;SDS011;2578;51.622;7.046;2022-09-12T14:30:55;39.27;;;35.87;;
5117;SDS011;2578;51.622;7.046;2022-09-12T14:33:22;37.47;;;34.17;;
5117;SDS011;2578;51.622;7.046;2022-09-12T14:35:52;39.67;;;36.27;;
5117;SDS011;2578;51.622;7.046;2022-09-12T14:38:40;34.03;;;30.90;;
5117;SDS011;2578;51.622;7.046;2022-09-12T14:41:09;34.17;;;30.87;;
5117;SDS011;2578;51.622;7.046;2022-09-12T14:43:41;32.80;;;29.80;;
5117;SDS011;2578;51.622;7.046;2022-09-12T14:46:16;33.10;;;30.00;;
5117;SDS011;2578;51.622;7.046;2022-09-12T14:48:48;33.43;;;30.43;;
5117;SDS011;2578;51.622;7.046;2022-09-12T14:51:18;34.03;;;30.93;;
5117;SDS011;2578;51.622;7.046;2022-09-12T14:53:50;33.83;;;30.73;;
5117;SDS011;2578;51.622;7.046;2022-09-12T14:56:15;33.67;;;30.67;;
5117;SDS011;2578;51.622;7.046;2022-09-12T14:58:44;33.00;;;30.00;;
5117;SDS011;2578;51.622;7.046;2022-09-12T15:06:30;33.03;;;30.03;;
5117;SDS011;2578;51.622;7.046;2022-09-12T15:09:13;34.23;;;31.13;;
5117;SDS011;2578;51.622;7.046;2022-09-12T15:11:38;34.50;;;31.50;;
5117;SDS011;2578;51.622;7.046;2022-09-12T15:14:11;35.63;;;32.43;;
5117;SDS011;2578;51.622;7.046;2022-09-12T15:16:37;33.73;;;30.73;;
5117;SDS011;2578;51.622;7.046;2022-09-12T15:19:03;34.28;;;31.27;;
5117;SDS011;2578;51.622;7.046;2022-09-12T15:21:29;32.50;;;29.60;;
5117;SDS011;2578;51.622;7.046;2022-09-12T15:23:54;34.83;;;31.83;;
5117;SDS011;2578;51.622;7.046;2022-09-12T15:26:21;34.20;;;31.20;;
5117;SDS011;2578;51.622;7.046;2022-09-12T15:28:48;34.67;;;31.67;;
5117;SDS011;2578;51.622;7.046;2022-09-12T15:31:24;34.97;;;31.97;;
5117;SDS011;2578;51.622;7.046;2022-09-12T15:33:52;33.73;;;30.73;;
5117;SDS011;2578;51.622;7.046;2022-09-12T15:36:19;33.40;;;30.40;;
5117;SDS011;2578;51.622;7.046;2022-09-12T15:38:46;34.10;;;31.10;;
5117;SDS011;2578;51.622;7.046;2022-09-12T15:41:20;33.33;;;30.33;;
5117;SDS011;2578;51.622;7.046;2022-09-12T15:43:52;33.53;;;30.53;;
5117;SDS011;2578;51.622;7.046;2022-09-12T15:46:18;32.50;;;29.50;;
5117;SDS011;2578;51.622;7.046;2022-09-12T15:48:44;33.50;;;30.40;;
5117;SDS011;2578;51.622;7.046;2022-09-12T15:51:11;35.40;;;32.30;;
5117;SDS011;2578;51.622;7.046;2022-09-12T15:53:37;39.00;;;32.83;;
5117;SDS011;2578;51.622;7.046;2022-09-12T15:56:03;33.83;;;30.87;;
5117;SDS011;2578;51.622;7.046;2022-09-12T15:58:29;34.13;;;31.17;;
5117;SDS011;2578;51.622;7.046;2022-09-12T16:00:54;29.60;;;26.80;;
5117;SDS011;2578;51.622;7.046;2022-09-12T16:03:21;29.00;;;26.20;;
5117;SDS011;2578;51.622;7.046;2022-09-12T16:05:49;28.80;;;26.10;;
5117;SDS011;2578;51.622;7.046;2022-09-12T16:08:19;28.07;;;25.40;;
5117;SDS011;2578;51.622;7.046;2022-09-12T16:10:44;28.73;;;26.03;;
5117;SDS011;2578;51.622;7.046;2022-09-12T16:13:11;29.20;;;26.40;;
5117;SDS011;2578;51.622;7.046;2022-09-12T16:15:37;29.50;;;26.70;;
5117;SDS011;2578;51.622;7.046;2022-09-12T16:18:03;29.70;;;26.90;;
5117;SDS011;2578;51.622;7.046;2022-09-12T16:20:28;29.30;;;26.60;;
5117;SDS011;2578;51.622;7.046;2022-09-12T16:22:54;29.90;;;27.10;;
5117;SDS011;2578;51.622;7.046;2022-09-12T16:25:19;30.67;;;27.87;;
5117;SDS011;2578;51.622;7.046;2022-09-12T16:27:45;30.10;;;27.30;;
5117;SDS011;2578;51.622;7.046;2022-09-12T16:30:11;31.70;;;28.80;;
5117;SDS011;2578;51.622;7.046;2022-09-12T16:32:37;31.63;;;28.73;;
5117;SDS011;2578;51.622;7.046;2022-09-12T16:35:03;31.60;;;28.70;;
5117;SDS011;2578;51.622;7.046;2022-09-12T16:37:30;31.93;;;29.13;;
5117;SDS011;2578;51.622;7.046;2022-09-12T16:39:58;30.23;;;27.43;;
5117;SDS011;2578;51.622;7.046;2022-09-12T16:42:24;29.97;;;27.27;;
5117;SDS011;2578;51.622;7.046;2022-09-12T16:44:50;30.10;;;27.40;;
5117;SDS011;2578;51.622;7.046;2022-09-12T16:47:16;31.53;;;28.63;;
5117;SDS011;2578;51.622;7.046;2022-09-12T16:49:41;30.20;;;27.50;;
5117;SDS011;2578;51.622;7.046;2022-09-12T16:52:07;29.30;;;26.60;;
5117;SDS011;2578;51.622;7.046;2022-09-12T16:54:33;29.00;;;26.40;;
5117;SDS011;2578;51.622;7.046;2022-09-12T16:56:59;30.73;;;28.03;;
5117;SDS011;2578;51.622;7.046;2022-09-12T16:59:25;28.70;;;26.10;;
5117;SDS011;2578;51.622;7.046;2022-09-12T17:01:51;31.23;;;28.43;;
5117;SDS011;2578;51.622;7.046;2022-09-12T17:04:16;28.13;;;25.43;;
5117;SDS011;2578;51.622;7.046;2022-09-12T17:06:42;31.07;;;28.27;;
5117;SDS011;2578;51.622;7.046;2022-09-12T17:09:08;32.83;;;30.03;;
5117;SDS011;2578;51.622;7.046;2022-09-12T17:11:35;29.90;;;27.20;;
5117;SDS011;2578;51.622;7.046;2022-09-12T17:14:03;30.40;;;27.70;;
5117;SDS011;2578;51.622;7.046;2022-09-12T17:16:31;29.00;;;26.40;;
5117;SDS011;2578;51.622;7.046;2022-09-12T17:18:57;28.97;;;26.37;;
5117;SDS011;2578;51.622;7.046;2022-09-12T17:21:23;30.07;;;27.37;;
5117;SDS011;2578;51.622;7.046;2022-09-12T17:23:49;28.60;;;26.00;;
5117;SDS011;2578;51.622;7.046;2022-09-12T17:26:14;28.60;;;26.00;;
5117;SDS011;2578;51.622;7.046;2022-09-12T17:28:40;27.40;;;24.90;;
5117;SDS011;2578;51.622;7.046;2022-09-12T17:31:07;26.57;;;24.07;;
5117;SDS011;2578;51.622;7.046;2022-09-12T17:33:35;26.00;;;23.60;;